sensor_id;sensor_type;location;lat;lon;timestamp;temperature;humidity
44477;DHT22;30180;44.788;10.366;2024-01-27T00:00:05;16.90;62.10
44477;DHT22;30180;44.788;10.366;2024-01-27T00:02:33;16.90;62.10
44477;DHT22;30180;44.788;10.366;2024-01-27T00:05:02;16.80;62.10
44477;DHT22;30180;44.788;10.366;2024-01-27T00:07:30;16.80;62.10
44477;DHT22;30180;44.788;10.366;2024-01-27T00:13:16;16.80;62.10
44477;DHT22;30180;44.788;10.366;2024-01-27T00:15:45;16.80;62.10
44477;DHT22;30180;44.788;10.366;2024-01-27T00:18:14;16.80;62.10
44477;DHT22;30180;44.788;10.366;2024-01-27T00:20:42;16.80;62.10
44477;DHT22;30180;44.788;10.366;2024-01-27T00:23:11;16.80;62.10
44477;DHT22;30180;44.788;10.366;2024-01-27T00:25:39;16.80;62.10
44477;DHT22;30180;44.788;10.366;2024-01-27T00:28:08;16.80;62.10
44477;DHT22;30180;44.788;10.366;2024-01-27T00:30:38;16.80;62.10
44477;DHT22;30180;44.788;10.366;2024-01-27T00:33:06;16.80;62.80
44477;DHT22;30180;44.788;10.366;2024-01-27T00:35:35;16.80;62.20
44477;DHT22;30180;44.788;10.366;2024-01-27T00:38:03;16.80;62.10
44477;DHT22;30180;44.788;10.366;2024-01-27T00:40:32;16.80;62.20
44477;DHT22;30180;44.788;10.366;2024-01-27T00:43:02;16.70;62.10
44477;DHT22;30180;44.788;10.366;2024-01-27T00:45:31;16.70;62.10
44477;DHT22;30180;44.788;10.366;2024-01-27T00:48:00;16.70;62.10
44477;DHT22;30180;44.788;10.366;2024-01-27T00:50:29;16.70;62.10
44477;DHT22;30180;44.788;10.366;2024-01-27T00:52:57;16.70;62.10
44477;DHT22;30180;44.788;10.366;2024-01-27T00:55:26;16.70;62.10
44477;DHT22;30180;44.788;10.366;2024-01-27T00:57:54;16.70;62.10
44477;DHT22;30180;44.788;10.366;2024-01-27T01:00:23;16.70;62.10
44477;DHT22;30180;44.788;10.366;2024-01-27T01:02:51;16.70;62.20
44477;DHT22;30180;44.788;10.366;2024-01-27T01:05:21;16.70;62.10
44477;DHT22;30180;44.788;10.366;2024-01-27T01:07:49;16.70;62.10
44477;DHT22;30180;44.788;10.366;2024-01-27T01:10:18;16.70;62.10
44477;DHT22;30180;44.788;10.366;2024-01-27T01:12:46;16.70;62.10
44477;DHT22;30180;44.788;10.366;2024-01-27T01:15:14;16.70;62.20
44477;DHT22;30180;44.788;10.366;2024-01-27T01:17:42;16.60;62.10
44477;DHT22;30180;44.788;10.366;2024-01-27T01:20:11;16.60;62.10
44477;DHT22;30180;44.788;10.366;2024-01-27T01:22:41;16.70;62.10
44477;DHT22;30180;44.788;10.366;2024-01-27T01:25:09;16.60;62.10
44477;DHT22;30180;44.788;10.366;2024-01-27T01:27:37;16.60;62.10
44477;DHT22;30180;44.788;10.366;2024-01-27T01:30:06;16.60;62.10
44477;DHT22;30180;44.788;10.366;2024-01-27T01:32:36;16.60;62.10
44477;DHT22;30180;44.788;10.366;2024-01-27T01:35:05;16.60;62.10
44477;DHT22;30180;44.788;10.366;2024-01-27T01:37:33;16.60;62.10
44477;DHT22;30180;44.788;10.366;2024-01-27T01:40:04;16.60;62.10
44477;DHT22;30180;44.788;10.366;2024-01-27T01:42:34;16.60;62.10
44477;DHT22;30180;44.788;10.366;2024-01-27T01:45:02;16.60;62.10
44477;DHT22;30180;44.788;10.366;2024-01-27T01:47:31;16.60;62.10
44477;DHT22;30180;44.788;10.366;2024-01-27T01:50:01;16.60;62.10
44477;DHT22;30180;44.788;10.366;2024-01-27T01:52:29;16.60;62.10
44477;DHT22;30180;44.788;10.366;2024-01-27T01:54:58;16.50;62.70
44477;DHT22;30180;44.788;10.366;2024-01-27T01:57:27;16.60;62.10
44477;DHT22;30180;44.788;10.366;2024-01-27T01:59:56;16.60;62.10
44477;DHT22;30180;44.788;10.366;2024-01-27T02:02:25;16.60;62.10
44477;DHT22;30180;44.788;10.366;2024-01-27T02:04:53;16.50;62.10
44477;DHT22;30180;44.788;10.366;2024-01-27T02:07:21;16.60;62.10
44477;DHT22;30180;44.788;10.366;2024-01-27T02:09:50;16.50;62.10
44477;DHT22;30180;44.788;10.366;2024-01-27T02:12:19;16.50;62.10
44477;DHT22;30180;44.788;10.366;2024-01-27T02:14:48;16.50;62.10
44477;DHT22;30180;44.788;10.366;2024-01-27T02:17:17;16.50;62.10
44477;DHT22;30180;44.788;10.366;2024-01-27T02:19:45;16.50;62.10
44477;DHT22;30180;44.788;10.366;2024-01-27T02:22:13;16.50;62.10
44477;DHT22;30180;44.788;10.366;2024-01-27T02:24:43;16.50;62.10
44477;DHT22;30180;44.788;10.366;2024-01-27T02:27:13;16.50;62.10
44477;DHT22;30180;44.788;10.366;2024-01-27T02:29:41;16.50;62.10
44477;DHT22;30180;44.788;10.366;2024-01-27T02:32:10;16.50;62.10
44477;DHT22;30180;44.788;10.366;2024-01-27T02:34:39;16.50;62.10
44477;DHT22;30180;44.788;10.366;2024-01-27T02:37:07;16.50;62.10
44477;DHT22;30180;44.788;10.366;2024-01-27T02:39:35;16.50;62.10
44477;DHT22;30180;44.788;10.366;2024-01-27T02:42:05;16.50;62.10
44477;DHT22;30180;44.788;10.366;2024-01-27T02:44:34;16.50;62.10
44477;DHT22;30180;44.788;10.366;2024-01-27T02:47:02;16.50;62.10
44477;DHT22;30180;44.788;10.366;2024-01-27T02:49:30;16.50;62.10
44477;DHT22;30180;44.788;10.366;2024-01-27T02:51:58;16.50;62.10
44477;DHT22;30180;44.788;10.366;2024-01-27T02:54:26;16.50;62.10
44477;DHT22;30180;44.788;10.366;2024-01-27T02:56:55;16.50;62.10
44477;DHT22;30180;44.788;10.366;2024-01-27T02:59:25;16.50;62.10
44477;DHT22;30180;44.788;10.366;2024-01-27T03:01:53;16.40;62.00
44477;DHT22;30180;44.788;10.366;2024-01-27T03:04:21;16.40;62.00
44477;DHT22;30180;44.788;10.366;2024-01-27T03:06:50;16.40;62.00
44477;DHT22;30180;44.788;10.366;2024-01-27T03:09:18;16.40;62.00
44477;DHT22;30180;44.788;10.366;2024-01-27T03:11:46;16.40;62.10
44477;DHT22;30180;44.788;10.366;2024-01-27T03:14:14;16.40;62.00
44477;DHT22;30180;44.788;10.366;2024-01-27T03:16:44;16.40;62.70
44477;DHT22;30180;44.788;10.366;2024-01-27T03:19:12;16.40;62.10
44477;DHT22;30180;44.788;10.366;2024-01-27T03:21:41;16.40;62.10
44477;DHT22;30180;44.788;10.366;2024-01-27T03:24:09;16.40;62.10
44477;DHT22;30180;44.788;10.366;2024-01-27T03:26:37;16.40;62.00
44477;DHT22;30180;44.788;10.366;2024-01-27T03:29:06;16.40;62.10
44477;DHT22;30180;44.788;10.366;2024-01-27T03:31:34;16.40;62.10
44477;DHT22;30180;44.788;10.366;2024-01-27T03:34:04;16.40;62.10
44477;DHT22;30180;44.788;10.366;2024-01-27T03:36:33;16.40;62.10
44477;DHT22;30180;44.788;10.366;2024-01-27T03:39:01;16.40;62.10
44477;DHT22;30180;44.788;10.366;2024-01-27T03:41:30;16.40;62.10
44477;DHT22;30180;44.788;10.366;2024-01-27T03:43:58;16.30;62.00
44477;DHT22;30180;44.788;10.366;2024-01-27T03:46:26;16.30;62.00
44477;DHT22;30180;44.788;10.366;2024-01-27T03:48:55;16.30;62.00
44477;DHT22;30180;44.788;10.366;2024-01-27T03:51:25;16.30;62.00
44477;DHT22;30180;44.788;10.366;2024-01-27T03:53:53;16.30;62.00
44477;DHT22;30180;44.788;10.366;2024-01-27T03:56:22;16.30;62.00
44477;DHT22;30180;44.788;10.366;2024-01-27T03:58:50;16.30;62.00
44477;DHT22;30180;44.788;10.366;2024-01-27T04:01:18;16.30;62.00
44477;DHT22;30180;44.788;10.366;2024-01-27T04:03:46;16.30;62.00
44477;DHT22;30180;44.788;10.366;2024-01-27T04:06:15;16.30;62.00
44477;DHT22;30180;44.788;10.366;2024-01-27T04:08:45;16.30;62.00
44477;DHT22;30180;44.788;10.366;2024-01-27T04:11:19;16.30;62.00
44477;DHT22;30180;44.788;10.366;2024-01-27T04:13:49;16.30;62.00
44477;DHT22;30180;44.788;10.366;2024-01-27T04:16:18;16.30;62.00
44477;DHT22;30180;44.788;10.366;2024-01-27T04:18:46;16.30;62.00
44477;DHT22;30180;44.788;10.366;2024-01-27T04:21:15;16.30;62.00
44477;DHT22;30180;44.788;10.366;2024-01-27T04:23:45;16.30;62.00
44477;DHT22;30180;44.788;10.366;2024-01-27T04:26:13;16.30;62.00
44477;DHT22;30180;44.788;10.366;2024-01-27T04:28:41;16.30;62.00
44477;DHT22;30180;44.788;10.366;2024-01-27T04:31:10;16.30;62.10
44477;DHT22;30180;44.788;10.366;2024-01-27T04:33:38;16.30;62.10
44477;DHT22;30180;44.788;10.366;2024-01-27T04:36:07;16.30;62.00
44477;DHT22;30180;44.788;10.366;2024-01-27T04:38:37;16.30;62.10
44477;DHT22;30180;44.788;10.366;2024-01-27T04:41:06;16.30;62.10
44477;DHT22;30180;44.788;10.366;2024-01-27T04:43:35;16.40;62.10
44477;DHT22;30180;44.788;10.366;2024-01-27T04:46:03;16.40;62.10
44477;DHT22;30180;44.788;10.366;2024-01-27T04:48:31;16.40;62.10
44477;DHT22;30180;44.788;10.366;2024-01-27T04:51:00;16.40;62.10
44477;DHT22;30180;44.788;10.366;2024-01-27T04:53:30;16.40;62.20
44477;DHT22;30180;44.788;10.366;2024-01-27T04:55:59;16.40;62.10
44477;DHT22;30180;44.788;10.366;2024-01-27T04:58:29;16.40;62.10
44477;DHT22;30180;44.788;10.366;2024-01-27T05:00:57;16.40;62.10
44477;DHT22;30180;44.788;10.366;2024-01-27T05:03:25;16.50;62.20
44477;DHT22;30180;44.788;10.366;2024-01-27T05:05:53;16.50;62.20
44477;DHT22;30180;44.788;10.366;2024-01-27T05:08:22;16.50;62.20
44477;DHT22;30180;44.788;10.366;2024-01-27T05:10:50;16.50;62.20
44477;DHT22;30180;44.788;10.366;2024-01-27T05:13:21;16.50;62.20
44477;DHT22;30180;44.788;10.366;2024-01-27T05:15:51;16.50;62.20
44477;DHT22;30180;44.788;10.366;2024-01-27T05:18:19;16.50;62.20
44477;DHT22;30180;44.788;10.366;2024-01-27T05:20:48;16.50;62.20
44477;DHT22;30180;44.788;10.366;2024-01-27T05:23:16;16.60;62.20
44477;DHT22;30180;44.788;10.366;2024-01-27T05:25:44;16.60;62.20
44477;DHT22;30180;44.788;10.366;2024-01-27T05:28:13;16.60;62.20
44477;DHT22;30180;44.788;10.366;2024-01-27T05:30:41;16.60;62.20
44477;DHT22;30180;44.788;10.366;2024-01-27T05:33:11;16.60;62.20
44477;DHT22;30180;44.788;10.366;2024-01-27T05:35:39;16.60;62.20
44477;DHT22;30180;44.788;10.366;2024-01-27T05:38:08;16.70;62.20
44477;DHT22;30180;44.788;10.366;2024-01-27T05:40:36;16.70;62.30
44477;DHT22;30180;44.788;10.366;2024-01-27T05:43:07;16.70;62.20
44477;DHT22;30180;44.788;10.366;2024-01-27T05:45:36;16.70;62.20
44477;DHT22;30180;44.788;10.366;2024-01-27T05:48:05;16.70;62.20
44477;DHT22;30180;44.788;10.366;2024-01-27T05:50:34;16.70;62.20
44477;DHT22;30180;44.788;10.366;2024-01-27T05:53:03;16.70;62.20
44477;DHT22;30180;44.788;10.366;2024-01-27T05:55:31;16.70;62.20
44477;DHT22;30180;44.788;10.366;2024-01-27T05:58:00;16.80;62.20
44477;DHT22;30180;44.788;10.366;2024-01-27T06:00:29;16.80;62.30
44477;DHT22;30180;44.788;10.366;2024-01-27T06:02:57;16.80;62.30
44477;DHT22;30180;44.788;10.366;2024-01-27T06:05:25;16.80;62.30
44477;DHT22;30180;44.788;10.366;2024-01-27T06:07:55;16.90;62.30
44477;DHT22;30180;44.788;10.366;2024-01-27T06:10:23;16.90;62.30
44477;DHT22;30180;44.788;10.366;2024-01-27T06:12:52;16.90;62.30
44477;DHT22;30180;44.788;10.366;2024-01-27T06:15:20;16.90;62.30
44477;DHT22;30180;44.788;10.366;2024-01-27T06:17:48;16.90;62.30
44477;DHT22;30180;44.788;10.366;2024-01-27T06:20:17;16.90;62.30
44477;DHT22;30180;44.788;10.366;2024-01-27T06:22:46;17.00;62.30
44477;DHT22;30180;44.788;10.366;2024-01-27T06:25:15;16.90;62.20
44477;DHT22;30180;44.788;10.366;2024-01-27T06:27:44;17.00;62.30
44477;DHT22;30180;44.788;10.366;2024-01-27T06:30:13;17.00;62.30
44477;DHT22;30180;44.788;10.366;2024-01-27T06:32:43;17.00;62.30
44477;DHT22;30180;44.788;10.366;2024-01-27T06:35:11;17.00;62.30
44477;DHT22;30180;44.788;10.366;2024-01-27T06:37:39;17.00;62.30
44477;DHT22;30180;44.788;10.366;2024-01-27T06:40:08;17.10;62.30
44477;DHT22;30180;44.788;10.366;2024-01-27T06:42:38;17.10;62.30
44477;DHT22;30180;44.788;10.366;2024-01-27T06:45:07;17.10;62.30
44477;DHT22;30180;44.788;10.366;2024-01-27T06:47:36;17.10;62.30
44477;DHT22;30180;44.788;10.366;2024-01-27T06:50:06;17.10;62.30
44477;DHT22;30180;44.788;10.366;2024-01-27T06:52:34;17.10;62.30
44477;DHT22;30180;44.788;10.366;2024-01-27T06:55:03;17.10;62.30
44477;DHT22;30180;44.788;10.366;2024-01-27T06:57:33;17.10;62.30
44477;DHT22;30180;44.788;10.366;2024-01-27T07:00:04;17.10;62.30
44477;DHT22;30180;44.788;10.366;2024-01-27T07:02:32;17.10;62.30
44477;DHT22;30180;44.788;10.366;2024-01-27T07:05:01;17.20;62.40
44477;DHT22;30180;44.788;10.366;2024-01-27T07:07:29;17.10;62.90
44477;DHT22;30180;44.788;10.366;2024-01-27T07:09:58;17.20;62.40
44477;DHT22;30180;44.788;10.366;2024-01-27T07:12:26;17.10;62.30
44477;DHT22;30180;44.788;10.366;2024-01-27T07:14:54;17.20;62.40
44477;DHT22;30180;44.788;10.366;2024-01-27T07:17:25;17.20;62.40
44477;DHT22;30180;44.788;10.366;2024-01-27T07:19:54;17.10;62.30
44477;DHT22;30180;44.788;10.366;2024-01-27T07:22:22;17.10;62.30
44477;DHT22;30180;44.788;10.366;2024-01-27T07:24:51;17.10;62.20
44477;DHT22;30180;44.788;10.366;2024-01-27T07:27:20;17.10;62.20
44477;DHT22;30180;44.788;10.366;2024-01-27T07:29:48;17.10;62.20
44477;DHT22;30180;44.788;10.366;2024-01-27T07:32:16;17.10;62.20
44477;DHT22;30180;44.788;10.366;2024-01-27T07:34:46;17.10;62.30
44477;DHT22;30180;44.788;10.366;2024-01-27T07:37:14;17.10;62.20
44477;DHT22;30180;44.788;10.366;2024-01-27T07:39:43;17.10;62.20
44477;DHT22;30180;44.788;10.366;2024-01-27T07:42:11;17.10;62.20
44477;DHT22;30180;44.788;10.366;2024-01-27T07:44:39;17.00;62.10
44477;DHT22;30180;44.788;10.366;2024-01-27T07:47:07;17.10;62.20
44477;DHT22;30180;44.788;10.366;2024-01-27T07:49:36;17.10;62.20
44477;DHT22;30180;44.788;10.366;2024-01-27T07:52:07;17.00;62.10
44477;DHT22;30180;44.788;10.366;2024-01-27T07:54:35;17.00;62.10
44477;DHT22;30180;44.788;10.366;2024-01-27T07:57:06;17.00;62.10
44477;DHT22;30180;44.788;10.366;2024-01-27T07:59:34;17.00;62.10
44477;DHT22;30180;44.788;10.366;2024-01-27T08:02:02;17.00;62.10
44477;DHT22;30180;44.788;10.366;2024-01-27T08:04:31;17.00;62.10
44477;DHT22;30180;44.788;10.366;2024-01-27T08:06:59;17.00;62.10
44477;DHT22;30180;44.788;10.366;2024-01-27T08:09:34;17.00;62.10
44477;DHT22;30180;44.788;10.366;2024-01-27T08:12:03;17.00;62.10
44477;DHT22;30180;44.788;10.366;2024-01-27T08:14:32;17.00;62.10
44477;DHT22;30180;44.788;10.366;2024-01-27T08:17:00;16.90;62.10
44477;DHT22;30180;44.788;10.366;2024-01-27T08:19:30;16.90;62.10
44477;DHT22;30180;44.788;10.366;2024-01-27T08:21:58;16.90;62.10
44477;DHT22;30180;44.788;10.366;2024-01-27T08:24:27;16.90;62.00
44477;DHT22;30180;44.788;10.366;2024-01-27T08:26:57;16.90;62.10
44477;DHT22;30180;44.788;10.366;2024-01-27T08:29:25;16.90;62.10
44477;DHT22;30180;44.788;10.366;2024-01-27T08:31:54;16.90;62.10
44477;DHT22;30180;44.788;10.366;2024-01-27T08:34:22;16.90;62.10
44477;DHT22;30180;44.788;10.366;2024-01-27T08:36:51;16.80;62.00
44477;DHT22;30180;44.788;10.366;2024-01-27T08:39:20;16.80;62.00
44477;DHT22;30180;44.788;10.366;2024-01-27T08:41:48;16.90;62.10
44477;DHT22;30180;44.788;10.366;2024-01-27T08:44:18;16.90;62.00
44477;DHT22;30180;44.788;10.366;2024-01-27T08:46:47;16.80;62.00
44477;DHT22;30180;44.788;10.366;2024-01-27T08:49:15;16.80;62.00
44477;DHT22;30180;44.788;10.366;2024-01-27T08:51:43;16.80;62.00
44477;DHT22;30180;44.788;10.366;2024-01-27T08:54:12;16.80;62.00
44477;DHT22;30180;44.788;10.366;2024-01-27T08:56:40;16.80;62.00
44477;DHT22;30180;44.788;10.366;2024-01-27T08:59:08;16.80;62.00
44477;DHT22;30180;44.788;10.366;2024-01-27T09:01:38;16.80;62.00
44477;DHT22;30180;44.788;10.366;2024-01-27T09:04:06;16.70;61.90
44477;DHT22;30180;44.788;10.366;2024-01-27T09:06:35;16.70;61.90
44477;DHT22;30180;44.788;10.366;2024-01-27T09:09:03;16.80;62.00
44477;DHT22;30180;44.788;10.366;2024-01-27T09:11:32;16.70;61.90
44477;DHT22;30180;44.788;10.366;2024-01-27T09:14:01;16.70;61.90
44477;DHT22;30180;44.788;10.366;2024-01-27T09:16:29;16.70;61.90
44477;DHT22;30180;44.788;10.366;2024-01-27T09:18:59;16.70;61.90
44477;DHT22;30180;44.788;10.366;2024-01-27T09:21:27;16.70;61.90
44477;DHT22;30180;44.788;10.366;2024-01-27T09:23:58;16.70;61.90
44477;DHT22;30180;44.788;10.366;2024-01-27T09:26:28;16.70;62.00
44477;DHT22;30180;44.788;10.366;2024-01-27T09:28:56;16.70;61.90
44477;DHT22;30180;44.788;10.366;2024-01-27T09:31:25;16.60;61.90
44477;DHT22;30180;44.788;10.366;2024-01-27T09:33:54;16.70;61.90
44477;DHT22;30180;44.788;10.366;2024-01-27T09:36:24;16.60;61.90
44477;DHT22;30180;44.788;10.366;2024-01-27T09:38:53;16.60;61.90
44477;DHT22;30180;44.788;10.366;2024-01-27T09:41:22;16.60;61.90
44477;DHT22;30180;44.788;10.366;2024-01-27T09:43:51;16.60;61.90
44477;DHT22;30180;44.788;10.366;2024-01-27T09:46:21;16.60;61.90
44477;DHT22;30180;44.788;10.366;2024-01-27T09:48:50;16.60;61.90
44477;DHT22;30180;44.788;10.366;2024-01-27T09:51:18;16.60;61.90
44477;DHT22;30180;44.788;10.366;2024-01-27T09:53:48;16.60;61.90
44477;DHT22;30180;44.788;10.366;2024-01-27T09:56:18;16.50;61.80
44477;DHT22;30180;44.788;10.366;2024-01-27T09:58:49;16.60;61.90
44477;DHT22;30180;44.788;10.366;2024-01-27T10:01:17;16.60;61.90
44477;DHT22;30180;44.788;10.366;2024-01-27T10:03:47;16.60;61.90
44477;DHT22;30180;44.788;10.366;2024-01-27T10:06:15;16.50;61.80
44477;DHT22;30180;44.788;10.366;2024-01-27T10:08:53;16.50;61.80
44477;DHT22;30180;44.788;10.366;2024-01-27T10:11:23;16.50;61.80
44477;DHT22;30180;44.788;10.366;2024-01-27T10:13:54;16.50;61.80
44477;DHT22;30180;44.788;10.366;2024-01-27T10:16:26;16.50;61.80
44477;DHT22;30180;44.788;10.366;2024-01-27T10:19:02;16.50;61.80
44477;DHT22;30180;44.788;10.366;2024-01-27T10:21:31;16.50;61.90
44477;DHT22;30180;44.788;10.366;2024-01-27T10:24:01;16.50;61.90
44477;DHT22;30180;44.788;10.366;2024-01-27T10:26:33;16.50;62.00
44477;DHT22;30180;44.788;10.366;2024-01-27T10:29:02;16.60;62.10
44477;DHT22;30180;44.788;10.366;2024-01-27T10:31:33;16.60;62.10
44477;DHT22;30180;44.788;10.366;2024-01-27T10:34:01;16.60;62.10
44477;DHT22;30180;44.788;10.366;2024-01-27T10:36:41;16.60;62.10
44477;DHT22;30180;44.788;10.366;2024-01-27T10:39:21;16.60;62.10
44477;DHT22;30180;44.788;10.366;2024-01-27T10:41:50;16.70;62.20
44477;DHT22;30180;44.788;10.366;2024-01-27T10:44:19;16.70;62.20
44477;DHT22;30180;44.788;10.366;2024-01-27T10:46:49;16.70;62.20
44477;DHT22;30180;44.788;10.366;2024-01-27T10:49:20;16.70;62.20
44477;DHT22;30180;44.788;10.366;2024-01-27T10:51:54;16.70;62.20
44477;DHT22;30180;44.788;10.366;2024-01-27T10:54:26;16.80;62.30
44477;DHT22;30180;44.788;10.366;2024-01-27T10:56:56;16.80;62.30
44477;DHT22;30180;44.788;10.366;2024-01-27T10:59:27;16.80;62.30
44477;DHT22;30180;44.788;10.366;2024-01-27T11:01:56;16.80;62.20
44477;DHT22;30180;44.788;10.366;2024-01-27T11:04:25;16.80;62.20
44477;DHT22;30180;44.788;10.366;2024-01-27T11:06:55;16.80;62.20
44477;DHT22;30180;44.788;10.366;2024-01-27T11:09:26;16.80;62.20
44477;DHT22;30180;44.788;10.366;2024-01-27T11:11:55;16.80;62.20
44477;DHT22;30180;44.788;10.366;2024-01-27T11:14:24;16.80;62.20
44477;DHT22;30180;44.788;10.366;2024-01-27T11:16:55;16.80;62.20
44477;DHT22;30180;44.788;10.366;2024-01-27T11:19:23;16.80;62.20
44477;DHT22;30180;44.788;10.366;2024-01-27T11:22:00;16.80;62.20
44477;DHT22;30180;44.788;10.366;2024-01-27T11:24:30;16.80;62.20
44477;DHT22;30180;44.788;10.366;2024-01-27T11:27:02;16.80;62.20
44477;DHT22;30180;44.788;10.366;2024-01-27T11:29:31;16.80;62.20
44477;DHT22;30180;44.788;10.366;2024-01-27T11:32:02;16.70;62.20
44477;DHT22;30180;44.788;10.366;2024-01-27T11:34:44;16.70;62.20
44477;DHT22;30180;44.788;10.366;2024-01-27T11:37:15;16.80;62.30
44477;DHT22;30180;44.788;10.366;2024-01-27T11:39:45;16.80;62.20
44477;DHT22;30180;44.788;10.366;2024-01-27T11:42:13;16.80;62.20
44477;DHT22;30180;44.788;10.366;2024-01-27T11:44:43;16.80;62.30
44477;DHT22;30180;44.788;10.366;2024-01-27T11:47:15;16.80;62.20
44477;DHT22;30180;44.788;10.366;2024-01-27T11:49:48;16.70;62.20
44477;DHT22;30180;44.788;10.366;2024-01-27T11:52:18;16.80;62.20
44477;DHT22;30180;44.788;10.366;2024-01-27T11:54:54;16.70;62.20
44477;DHT22;30180;44.788;10.366;2024-01-27T11:57:22;16.70;62.20
44477;DHT22;30180;44.788;10.366;2024-01-27T11:59:50;16.80;62.90
44477;DHT22;30180;44.788;10.366;2024-01-27T12:02:19;16.80;62.30
44477;DHT22;30180;44.788;10.366;2024-01-27T12:04:47;16.70;62.30
44477;DHT22;30180;44.788;10.366;2024-01-27T12:07:16;16.70;62.20
44477;DHT22;30180;44.788;10.366;2024-01-27T12:09:50;16.70;62.20
44477;DHT22;30180;44.788;10.366;2024-01-27T12:12:20;16.70;62.20
44477;DHT22;30180;44.788;10.366;2024-01-27T12:14:50;16.70;62.20
44477;DHT22;30180;44.788;10.366;2024-01-27T12:17:19;16.70;62.20
44477;DHT22;30180;44.788;10.366;2024-01-27T12:19:48;16.70;62.20
44477;DHT22;30180;44.788;10.366;2024-01-27T12:22:24;16.70;62.20
44477;DHT22;30180;44.788;10.366;2024-01-27T12:24:55;16.70;62.20
44477;DHT22;30180;44.788;10.366;2024-01-27T12:27:24;16.70;62.20
44477;DHT22;30180;44.788;10.366;2024-01-27T12:29:52;16.70;62.20
44477;DHT22;30180;44.788;10.366;2024-01-27T12:32:21;16.70;62.20
44477;DHT22;30180;44.788;10.366;2024-01-27T12:34:50;16.70;62.90
44477;DHT22;30180;44.788;10.366;2024-01-27T12:37:21;16.70;62.30
44477;DHT22;30180;44.788;10.366;2024-01-27T12:39:49;16.70;62.30
44477;DHT22;30180;44.788;10.366;2024-01-27T12:42:19;16.60;62.20
44477;DHT22;30180;44.788;10.366;2024-01-27T12:44:48;16.70;62.30
44477;DHT22;30180;44.788;10.366;2024-01-27T12:47:16;16.60;62.20
44477;DHT22;30180;44.788;10.366;2024-01-27T12:49:46;16.60;62.20
44477;DHT22;30180;44.788;10.366;2024-01-27T12:52:15;16.70;62.30
44477;DHT22;30180;44.788;10.366;2024-01-27T12:54:43;16.60;62.20
44477;DHT22;30180;44.788;10.366;2024-01-27T12:57:11;16.60;62.20
44477;DHT22;30180;44.788;10.366;2024-01-27T12:59:41;16.60;62.20
44477;DHT22;30180;44.788;10.366;2024-01-27T13:02:09;16.60;62.20
44477;DHT22;30180;44.788;10.366;2024-01-27T13:04:37;16.60;62.20
44477;DHT22;30180;44.788;10.366;2024-01-27T13:07:06;16.60;62.20
44477;DHT22;30180;44.788;10.366;2024-01-27T13:09:35;16.60;62.20
44477;DHT22;30180;44.788;10.366;2024-01-27T13:12:04;16.60;62.30
44477;DHT22;30180;44.788;10.366;2024-01-27T13:14:33;16.60;62.30
44477;DHT22;30180;44.788;10.366;2024-01-27T13:17:03;16.60;62.20
44477;DHT22;30180;44.788;10.366;2024-01-27T13:19:31;16.60;62.20
44477;DHT22;30180;44.788;10.366;2024-01-27T13:22:00;16.50;62.20
44477;DHT22;30180;44.788;10.366;2024-01-27T13:24:29;16.50;62.20
44477;DHT22;30180;44.788;10.366;2024-01-27T13:26:57;16.50;62.20
44477;DHT22;30180;44.788;10.366;2024-01-27T13:29:25;16.50;62.20
44477;DHT22;30180;44.788;10.366;2024-01-27T13:31:54;16.50;62.20
44477;DHT22;30180;44.788;10.366;2024-01-27T13:34:26;16.50;62.20
44477;DHT22;30180;44.788;10.366;2024-01-27T13:36:58;16.50;62.20
44477;DHT22;30180;44.788;10.366;2024-01-27T13:39:29;16.50;62.20
44477;DHT22;30180;44.788;10.366;2024-01-27T13:41:58;16.50;62.20
44477;DHT22;30180;44.788;10.366;2024-01-27T13:44:26;16.50;62.20
44477;DHT22;30180;44.788;10.366;2024-01-27T13:46:59;16.50;62.20
44477;DHT22;30180;44.788;10.366;2024-01-27T13:49:29;16.50;62.80
44477;DHT22;30180;44.788;10.366;2024-01-27T13:51:57;16.50;62.20
44477;DHT22;30180;44.788;10.366;2024-01-27T13:54:29;16.50;62.20
44477;DHT22;30180;44.788;10.366;2024-01-27T13:56:58;16.40;62.20
44477;DHT22;30180;44.788;10.366;2024-01-27T13:59:26;16.50;62.20
44477;DHT22;30180;44.788;10.366;2024-01-27T14:01:54;16.40;62.20
44477;DHT22;30180;44.788;10.366;2024-01-27T14:04:24;16.50;62.20
44477;DHT22;30180;44.788;10.366;2024-01-27T14:06:55;16.50;62.20
44477;DHT22;30180;44.788;10.366;2024-01-27T14:09:23;16.40;62.20
44477;DHT22;30180;44.788;10.366;2024-01-27T14:11:52;16.40;62.80
44477;DHT22;30180;44.788;10.366;2024-01-27T14:14:20;16.40;62.20
44477;DHT22;30180;44.788;10.366;2024-01-27T14:16:49;16.40;62.20
44477;DHT22;30180;44.788;10.366;2024-01-27T14:19:17;16.40;62.20
44477;DHT22;30180;44.788;10.366;2024-01-27T14:21:46;16.40;62.30
44477;DHT22;30180;44.788;10.366;2024-01-27T14:24:15;16.40;62.20
44477;DHT22;30180;44.788;10.366;2024-01-27T14:26:44;16.40;62.30
44477;DHT22;30180;44.788;10.366;2024-01-27T14:29:12;16.40;62.90
44477;DHT22;30180;44.788;10.366;2024-01-27T14:31:40;16.40;62.20
44477;DHT22;30180;44.788;10.366;2024-01-27T14:34:08;16.40;62.20
44477;DHT22;30180;44.788;10.366;2024-01-27T14:36:40;16.40;62.20
44477;DHT22;30180;44.788;10.366;2024-01-27T14:39:10;16.40;62.20
44477;DHT22;30180;44.788;10.366;2024-01-27T14:41:40;16.40;62.20
44477;DHT22;30180;44.788;10.366;2024-01-27T14:44:08;16.40;62.20
44477;DHT22;30180;44.788;10.366;2024-01-27T14:46:38;16.30;62.20
44477;DHT22;30180;44.788;10.366;2024-01-27T14:49:07;16.30;62.20
44477;DHT22;30180;44.788;10.366;2024-01-27T14:51:35;16.30;62.20
44477;DHT22;30180;44.788;10.366;2024-01-27T14:54:04;16.30;62.20
44477;DHT22;30180;44.788;10.366;2024-01-27T14:56:33;16.30;62.20
44477;DHT22;30180;44.788;10.366;2024-01-27T14:59:02;16.30;62.20
44477;DHT22;30180;44.788;10.366;2024-01-27T15:01:31;16.30;62.20
44477;DHT22;30180;44.788;10.366;2024-01-27T15:04:00;16.30;62.20
44477;DHT22;30180;44.788;10.366;2024-01-27T15:06:28;16.30;62.20
44477;DHT22;30180;44.788;10.366;2024-01-27T15:08:56;16.30;62.20
44477;DHT22;30180;44.788;10.366;2024-01-27T15:11:25;16.30;62.20
44477;DHT22;30180;44.788;10.366;2024-01-27T15:13:53;16.30;62.30
44477;DHT22;30180;44.788;10.366;2024-01-27T15:16:23;16.30;62.20
44477;DHT22;30180;44.788;10.366;2024-01-27T15:18:53;16.30;62.30
44477;DHT22;30180;44.788;10.366;2024-01-27T15:21:21;16.30;62.30
44477;DHT22;30180;44.788;10.366;2024-01-27T15:23:49;16.30;62.30
44477;DHT22;30180;44.788;10.366;2024-01-27T15:26:18;16.30;62.30
44477;DHT22;30180;44.788;10.366;2024-01-27T15:28:46;16.30;62.30